M/V Lady Of Prompt Succor — WDD9441 — position and weather

sailwx.info

Track history (hours):
 
Tides and Currents Weather Stations Pressure Air Temp Water Temp Dewpoint Dewpoint Depression Visibility Wind Speed Wind Dir Waves Ship Positions

M/V Lady Of Prompt Succor

Owner: Marquette Transportation Company Gulf-Inland, LLC, Jefferson, LA. More information available from US FCC via Universal Licensing System and Coast Guard Vessel Documentation Center.

Last reported at 2017-Nov-17 18:19 UTC. Time now 2017-Nov-18 14:07 UTC.
Position N 29°32' W 094°53'.

Length 22 m; draft 2.7 m.

Type: Towing. MMSI: 367311490.

Date/timePositionNaut miles runAvg speedWind from/ knotsBaromVisibWave heightAir tempDewpointWater temp
2017-Nov-17 18:19N 29°32' W 094°53'2 7.3
2017-Nov-17 18:01N 29°33' W 094°55'4 7.2
2017-Nov-17 17:31N 29°36' W 094°57'4 7.5
2017-Nov-17 17:00N 29°40' W 094°59'4 7.2
2017-Nov-17 16:30N 29°43' W 095°01'4 6.8
2017-Nov-17 15:58N 29°45' W 095°04'2 2.2
2017-Nov-17 14:52N 29°46' W 095°07'1 0.1
2017-Nov-16 21:23N 29°46' W 095°05'2 4.9
2017-Nov-16 21:00N 29°45' W 095°04'3 5.7
2017-Nov-16 20:30N 29°43' W 095°01'3 6.2
2017-Nov-16 20:00N 29°41' W 094°59'3 6.8
2017-Nov-16 19:30N 29°37' W 094°57'3 6.8
2017-Nov-16 19:00N 29°34' W 094°56'3 6.8
2017-Nov-16 18:30N 29°32' W 094°53'  
2017-Nov-13 01:59N 29°46' W 095°07'0 0.1
2017-Nov-12 21:54N 29°46' W 095°07'1 2.2
2017-Nov-12 21:30N 29°45' W 095°06'2 4.2
2017-Nov-12 21:00N 29°44' W 095°04'3 5.6
2017-Nov-12 20:30N 29°42' W 095°01'3 5.9
2017-Nov-12 20:01N 29°41' W 094°59'3 6.9
2017-Nov-12 19:31N 29°37' W 094°57'3 6.9
2017-Nov-12 19:01N 29°34' W 094°55'3 6.8
2017-Nov-12 18:31N 29°31' W 094°53'  
Track history (hours):
 
Tides and Currents Weather Stations Pressure Air Temp Water Temp Dewpoint Dewpoint Depression Visibility Wind Speed Wind Dir Waves Ship Positions

M/V Lady Of Prompt Succor

Owner: Marquette Transportation Company Gulf-Inland, LLC, Jefferson, LA. More information available from US FCC via Universal Licensing System and Coast Guard Vessel Documentation Center.

Last reported at 2017-Nov-17 18:19 UTC. Time now 2017-Nov-18 14:07 UTC.
Position N 29°32' W 094°53'.

Length 22 m; draft 2.7 m.

Type: Towing. MMSI: 367311490.

Date/timePositionNaut miles runAvg speedWind from/ knotsBaromVisibWave heightAir tempDewpointWater temp
2017-Nov-17 18:19N 29°32' W 094°53'2 7.3
2017-Nov-17 18:01N 29°33' W 094°55'4 7.2
2017-Nov-17 17:31N 29°36' W 094°57'4 7.5
2017-Nov-17 17:00N 29°40' W 094°59'4 7.2
2017-Nov-17 16:30N 29°43' W 095°01'4 6.8
2017-Nov-17 15:58N 29°45' W 095°04'2 2.2
2017-Nov-17 14:52N 29°46' W 095°07'1 0.1
2017-Nov-16 21:23N 29°46' W 095°05'2 4.9
2017-Nov-16 21:00N 29°45' W 095°04'3 5.7
2017-Nov-16 20:30N 29°43' W 095°01'3 6.2
2017-Nov-16 20:00N 29°41' W 094°59'3 6.8
2017-Nov-16 19:30N 29°37' W 094°57'3 6.8
2017-Nov-16 19:00N 29°34' W 094°56'3 6.8
2017-Nov-16 18:30N 29°32' W 094°53'  
2017-Nov-13 01:59N 29°46' W 095°07'0 0.1
2017-Nov-12 21:54N 29°46' W 095°07'1 2.2
2017-Nov-12 21:30N 29°45' W 095°06'2 4.2
2017-Nov-12 21:00N 29°44' W 095°04'3 5.6
2017-Nov-12 20:30N 29°42' W 095°01'3 5.9
2017-Nov-12 20:01N 29°41' W 094°59'3 6.9
2017-Nov-12 19:31N 29°37' W 094°57'3 6.9
2017-Nov-12 19:01N 29°34' W 094°55'3 6.8
2017-Nov-12 18:31N 29°31' W 094°53'  

Dump ship's entire track history